Time,TemperatureF,DewpointF,PressureIn,WindDirection,WindDirectionDegrees,WindSpeedMPH,WindSpeedGustMPH,Humidity,HourlyPrecipIn,Conditions,Clouds,dailyrainin,SoftwareType,DateUTC
2013-05-31 00:03:00,75.0,-99.9,30.07,SSE,167,6.0,9.0,-999,-99.99,,,-99.99,,2013-05-31 04:03:00,
2013-05-31 00:12:00,77.0,-99.9,-100.00,SSE,164,6.0,8.0,-999,-99.99,,,-99.99,,2013-05-31 04:12:00,
2013-05-31 00:23:00,77.0,-99.9,-100.00,South,177,4.0,6.0,-999,-99.99,,,-99.99,,2013-05-31 04:23:00,
2013-05-31 00:33:00,78.0,-99.9,30.07,SSE,165,6.0,7.0,-999,-99.99,,,-99.99,,2013-05-31 04:33:00,
2013-05-31 00:43:00,75.0,-99.9,-100.00,SSE,166,6.0,11.0,-999,-99.99,,,-99.99,,2013-05-31 04:43:00,
2013-05-31 00:53:00,76.0,-99.9,-100.00,SSE,162,7.0,9.0,-999,-99.99,,,-99.99,,2013-05-31 04:53:00,
2013-05-31 01:02:00,76.0,-99.9,30.07,SSE,164,6.0,9.0,-999,-99.99,,,-99.99,,2013-05-31 05:02:00,
2013-05-31 01:12:00,76.0,-99.9,-100.00,SSE,164,5.0,6.0,-999,-99.99,,,-99.99,,2013-05-31 05:12:00,
2013-05-31 01:22:00,77.0,-99.9,-100.00,SSE,163,5.0,6.0,-999,-99.99,,,-99.99,,2013-05-31 05:22:00,
2013-05-31 01:32:00,77.0,-99.9,30.07,South,175,5.0,7.0,-999,-99.99,,,-99.99,,2013-05-31 05:32:00,
2013-05-31 01:42:00,78.0,-99.9,-100.00,South,177,4.0,6.0,-999,-99.99,,,-99.99,,2013-05-31 05:42:00,
2013-05-31 01:52:00,78.0,-99.9,-100.00,South,189,3.0,4.0,-999,-99.99,,,-99.99,,2013-05-31 05:52:00,
2013-05-31 02:02:00,77.0,-99.9,30.07,South,189,3.0,4.0,-999,-99.99,,,-99.99,,2013-05-31 06:02:00,
2013-05-31 02:12:00,77.0,-99.9,-100.00,South,187,3.0,4.0,-999,-99.99,,,-99.99,,2013-05-31 06:12:00,
2013-05-31 02:22:00,77.0,-99.9,-100.00,SSW,200,2.0,3.0,-999,-99.99,,,-99.99,,2013-05-31 06:22:00,
2013-05-31 02:32:00,78.0,-99.9,-100.00,South,180,3.0,4.0,-999,-99.99,,,-99.99,,2013-05-31 06:32:00,
2013-05-31 02:42:00,78.0,-99.9,-100.00,SSW,195,3.0,4.0,-999,-99.99,,,-99.99,,2013-05-31 06:42:00,
2013-05-31 02:52:00,78.0,-99.9,-100.00,SSW,196,3.0,4.0,-999,-99.99,,,-99.99,,2013-05-31 06:52:00,
2013-05-31 03:02:00,78.0,-99.9,30.07,SSW,207,3.0,4.0,-999,-99.99,,,-99.99,,2013-05-31 07:02:00,
2013-05-31 03:12:00,77.0,-99.9,-100.00,SSW,192,2.0,4.0,-999,-99.99,,,-99.99,,2013-05-31 07:12:00,
2013-05-31 03:22:00,77.0,-99.9,-100.00,SSW,205,2.0,4.0,-999,-99.99,,,-99.99,,2013-05-31 07:22:00,
2013-05-31 03:32:00,77.0,-99.9,30.07,SSW,195,2.0,3.0,-999,-99.99,,,-99.99,,2013-05-31 07:32:00,
2013-05-31 03:42:00,77.0,-99.9,-100.00,SSW,209,2.0,2.0,-999,-99.99,,,-99.99,,2013-05-31 07:42:00,
2013-05-31 03:53:00,76.0,-99.9,-100.00,SSW,194,2.0,3.0,-999,-99.99,,,-99.99,,2013-05-31 07:53:00,
2013-05-31 04:02:00,76.0,-99.9,30.07,South,181,2.0,2.0,-999,-99.99,,,-99.99,,2013-05-31 08:02:00,
2013-05-31 04:11:00,76.0,-99.9,-100.00,SSW,195,2.0,3.0,-999,-99.99,,,-99.99,,2013-05-31 08:11:00,
2013-05-31 04:22:00,77.0,-99.9,-100.00,South,180,2.0,3.0,-999,-99.99,,,-99.99,,2013-05-31 08:22:00,
2013-05-31 04:32:00,77.0,-99.9,-100.00,South,186,2.0,3.0,-999,-99.99,,,-99.99,,2013-05-31 08:32:00,
2013-05-31 04:42:00,77.0,-99.9,-100.00,South,186,3.0,4.0,-999,-99.99,,,-99.99,,2013-05-31 08:42:00,
2013-05-31 04:52:00,76.0,-99.9,-100.00,South,183,3.0,4.0,-999,-99.99,,,-99.99,,2013-05-31 08:52:00,
2013-05-31 05:01:00,76.0,-99.9,30.07,South,184,3.0,4.0,-999,-99.99,,,-99.99,,2013-05-31 09:01:00,
2013-05-31 05:11:00,75.0,-99.9,-100.00,South,177,3.0,4.0,-999,-99.99,,,-99.99,,2013-05-31 09:11:00,
2013-05-31 05:21:00,75.0,-99.9,-100.00,South,172,4.0,5.0,-999,-99.99,,,-99.99,,2013-05-31 09:21:00,
2013-05-31 05:32:00,75.0,-99.9,30.07,South,169,4.0,5.0,-999,-99.99,,,-99.99,,2013-05-31 09:32:00,
2013-05-31 05:43:00,75.0,-99.9,-100.00,SE,128,3.0,5.0,-999,-99.99,,,-99.99,,2013-05-31 09:43:00,
2013-05-31 05:53:00,75.0,-99.9,-100.00,SSE,165,4.0,6.0,-999,-99.99,,,-99.99,,2013-05-31 09:53:00,
2013-05-31 06:02:00,74.0,-99.9,-100.00,South,173,4.0,6.0,-999,-99.99,,,-99.99,,2013-05-31 10:02:00,
2013-05-31 06:12:00,74.0,-99.9,-100.00,South,178,4.0,5.0,-999,-99.99,,,-99.99,,2013-05-31 10:12:00,
2013-05-31 06:23:00,74.0,-99.9,-100.00,South,179,4.0,6.0,-999,-99.99,,,-99.99,,2013-05-31 10:23:00,
2013-05-31 06:33:00,74.0,-99.9,30.08,South,177,4.0,6.0,-999,-99.99,,,-99.99,,2013-05-31 10:33:00,
2013-05-31 06:42:00,74.0,-99.9,-100.00,South,180,4.0,6.0,-999,-99.99,,,-99.99,,2013-05-31 10:42:00,
2013-05-31 06:53:00,74.0,-99.9,-100.00,South,176,4.0,6.0,-999,-99.99,,,-99.99,,2013-05-31 10:53:00,
2013-05-31 07:02:00,74.0,-99.9,-100.00,South,175,4.0,5.0,-999,-99.99,,,-99.99,,2013-05-31 11:02:00,
2013-05-31 07:12:00,74.0,-99.9,-100.00,South,175,4.0,5.0,-999,-99.99,,,-99.99,,2013-05-31 11:12:00,
2013-05-31 07:22:00,75.0,-99.9,-100.00,South,170,4.0,5.0,-999,-99.99,,,-99.99,,2013-05-31 11:22:00,
2013-05-31 07:32:00,75.0,-99.9,30.09,South,172,3.0,5.0,-999,-99.99,,,-99.99,,2013-05-31 11:32:00,
2013-05-31 07:42:00,76.0,-99.9,-100.00,South,175,2.0,4.0,-999,-99.99,,,-99.99,,2013-05-31 11:42:00,
2013-05-31 07:52:00,77.0,-99.9,-100.00,SSE,152,2.0,3.0,-999,-99.99,,,-99.99,,2013-05-31 11:52:00,
2013-05-31 08:01:00,77.0,-99.9,30.10,South,183,1.0,3.0,-999,-99.99,,,-99.99,,2013-05-31 12:01:00,
2013-05-31 08:11:00,78.0,-99.9,-100.00,SSE,155,2.0,2.0,-999,-99.99,,,-99.99,,2013-05-31 12:11:00,
2013-05-31 08:22:00,79.0,-99.9,-100.00,SSW,196,2.0,3.0,-999,-99.99,,,-99.99,,2013-05-31 12:22:00,
2013-05-31 08:32:00,79.0,-99.9,30.10,South,182,2.0,3.0,-999,-99.99,,,-99.99,,2013-05-31 12:32:00,
2013-05-31 08:42:00,80.0,-99.9,-100.00,SSW,193,2.0,3.0,-999,-99.99,,,-99.99,,2013-05-31 12:42:00,
2013-05-31 08:52:00,80.0,-99.9,-100.00,South,181,2.0,3.0,-999,-99.99,,,-99.99,,2013-05-31 12:52:00,
2013-05-31 09:01:00,80.0,-99.9,30.10,SSW,193,2.0,3.0,-999,-99.99,,,-99.99,,2013-05-31 13:01:00,
2013-05-31 09:11:00,81.0,-99.9,-100.00,South,188,2.0,2.0,-999,-99.99,,,-99.99,,2013-05-31 13:11:00,
2013-05-31 09:22:00,81.0,-99.9,-100.00,SSE,168,2.0,2.0,-999,-99.99,,,-99.99,,2013-05-31 13:22:00,
2013-05-31 09:32:00,82.0,-99.9,-100.00,South,188,1.0,2.0,-999,-99.99,,,-99.99,,2013-05-31 13:32:00,
2013-05-31 09:42:00,82.0,-99.9,-100.00,SSW,192,0.0,1.0,-999,-99.99,,,-99.99,,2013-05-31 13:42:00,
2013-05-31 09:52:00,84.0,-99.9,-100.00,NNW,329,-999.0,1.0,-999,-99.99,,,-99.99,,2013-05-31 13:52:00,
2013-05-31 10:02:00,85.0,-99.9,30.09,West,275,-999.0,1.0,-999,-99.99,,,-99.99,,2013-05-31 14:02:00,
2013-05-31 10:11:00,84.0,-99.9,-100.00,South,184,-999.0,1.0,-999,-99.99,,,-99.99,,2013-05-31 14:11:00,
2013-05-31 10:22:00,84.0,-99.9,-100.00,South,183,1.0,2.0,-999,-99.99,,,-99.99,,2013-05-31 14:22:00,
2013-05-31 10:32:00,85.0,-99.9,30.09,SSW,195,1.0,1.0,-999,-99.99,,,-99.99,,2013-05-31 14:32:00,
2013-05-31 10:42:00,86.0,-99.9,-100.00,SSW,207,1.0,1.0,-999,-99.99,,,-99.99,,2013-05-31 14:42:00,
2013-05-31 10:52:00,87.0,-99.9,-100.00,SSW,207,-999.0,1.0,-999,-99.99,,,-99.99,,2013-05-31 14:52:00,
2013-05-31 11:01:00,87.0,-99.9,30.08,SSW,207,1.0,1.0,-999,-99.99,,,-99.99,,2013-05-31 15:01:00,
2013-05-31 11:11:00,88.0,-99.9,-100.00,South,185,1.0,2.0,-999,-99.99,,,-99.99,,2013-05-31 15:11:00,
2013-05-31 11:22:00,88.0,-99.9,-100.00,SSW,199,1.0,1.0,-999,-99.99,,,-99.99,,2013-05-31 15:22:00,
2013-05-31 11:33:00,88.0,-99.9,-100.00,SSW,199,1.0,1.0,-999,-99.99,,,-99.99,,2013-05-31 15:33:00,
2013-05-31 11:43:00,90.0,-99.9,-100.00,South,183,2.0,2.0,-999,-99.99,,,-99.99,,2013-05-31 15:43:00,
2013-05-31 11:53:00,88.0,-99.9,-100.00,SSW,203,1.0,2.0,-999,-99.99,,,-99.99,,2013-05-31 15:53:00,
2013-05-31 12:03:00,88.0,-99.9,30.07,South,190,2.0,3.0,-999,-99.99,,,-99.99,,2013-05-31 16:03:00,
2013-05-31 12:13:00,88.0,-99.9,-100.00,SW,216,1.0,1.0,-999,-99.99,,,-99.99,,2013-05-31 16:13:00,
2013-05-31 12:22:00,89.0,-99.9,-100.00,SSW,206,-999.0,1.0,-999,-99.99,,,-99.99,,2013-05-31 16:22:00,
2013-05-31 12:33:00,90.0,-99.9,30.06,North,-999,-999.0,-999.0,-999,-99.99,,,-99.99,,2013-05-31 16:33:00,
2013-05-31 12:42:00,90.0,-99.9,-100.00,SSW,211,-999.0,1.0,-999,-99.99,,,-99.99,,2013-05-31 16:42:00,
2013-05-31 12:53:00,87.0,-99.9,-100.00,SSW,196,7.0,8.0,-999,-99.99,,,-99.99,,2013-05-31 16:53:00,
2013-05-31 13:02:00,86.0,-99.9,-100.00,South,186,12.0,13.0,-999,-99.99,,,-99.99,,2013-05-31 17:02:00,
2013-05-31 13:12:00,84.0,-99.9,-100.00,SSW,193,12.0,14.0,-999,-99.99,,,-99.99,,2013-05-31 17:12:00,
2013-05-31 13:22:00,83.0,-99.9,-100.00,SSW,192,10.0,12.0,-999,-99.99,,,-99.99,,2013-05-31 17:22:00,
2013-05-31 13:32:00,84.0,-99.9,30.06,SSW,194,12.0,14.0,-999,-99.99,,,-99.99,,2013-05-31 17:32:00,
2013-05-31 13:42:00,82.0,-99.9,-100.00,SSW,207,12.0,15.0,-999,-99.99,,,-99.99,,2013-05-31 17:42:00,
2013-05-31 13:52:00,84.0,-99.9,-100.00,SW,214,16.0,18.0,-999,-99.99,,,-99.99,,2013-05-31 17:52:00,
2013-05-31 14:02:00,82.0,-99.9,30.05,SSW,213,16.0,17.0,-999,-99.99,,,-99.99,,2013-05-31 18:02:00,
2013-05-31 14:12:00,82.0,-99.9,-100.00,SSW,201,13.0,14.0,-999,-99.99,,,-99.99,,2013-05-31 18:12:00,
2013-05-31 14:22:00,80.0,-99.9,-100.00,SSW,203,12.0,14.0,-999,-99.99,,,-99.99,,2013-05-31 18:22:00,
2013-05-31 14:32:00,83.0,-99.9,30.04,SSW,192,11.0,15.0,-999,-99.99,,,-99.99,,2013-05-31 18:32:00,
2013-05-31 14:42:00,83.0,-99.9,-100.00,SSW,201,13.0,15.0,-999,-99.99,,,-99.99,,2013-05-31 18:42:00,
2013-05-31 14:52:00,83.0,-99.9,-100.00,SSW,197,10.0,14.0,-999,-99.99,,,-99.99,,2013-05-31 18:52:00,
2013-05-31 15:02:00,79.0,-99.9,30.03,SSW,207,13.0,15.0,-999,-99.99,,,-99.99,,2013-05-31 19:02:00,
2013-05-31 15:12:00,79.0,-99.9,-100.00,SSW,196,12.0,14.0,-999,-99.99,,,-99.99,,2013-05-31 19:12:00,
2013-05-31 15:22:00,79.0,-99.9,-100.00,South,191,15.0,16.0,-999,-99.99,,,-99.99,,2013-05-31 19:22:00,
2013-05-31 15:32:00,81.0,-99.9,-100.00,South,189,15.0,17.0,-999,-99.99,,,-99.99,,2013-05-31 19:32:00,
2013-05-31 15:42:00,78.0,-99.9,-100.00,South,191,14.0,17.0,-999,-99.99,,,-99.99,,2013-05-31 19:42:00,
2013-05-31 15:52:00,81.0,-99.9,-100.00,South,191,15.0,17.0,-999,-99.99,,,-99.99,,2013-05-31 19:52:00,
2013-05-31 16:02:00,78.0,-99.9,30.03,SSW,192,13.0,16.0,-999,-99.99,,,-99.99,,2013-05-31 20:02:00,
2013-05-31 16:11:00,76.0,-99.9,-100.00,SSW,193,11.0,14.0,-999,-99.99,,,-99.99,,2013-05-31 20:11:00,
2013-05-31 16:22:00,78.0,-99.9,-100.00,South,190,14.0,16.0,-999,-99.99,,,-99.99,,2013-05-31 20:22:00,
2013-05-31 16:32:00,76.0,-99.9,30.02,SSW,193,13.0,17.0,-999,-99.99,,,-99.99,,2013-05-31 20:32:00,
2013-05-31 16:42:00,79.0,-99.9,-100.00,South,190,15.0,16.0,-999,-99.99,,,-99.99,,2013-05-31 20:42:00,
2013-05-31 16:52:00,75.0,-99.9,-100.00,SSW,196,13.0,15.0,-999,-99.99,,,-99.99,,2013-05-31 20:52:00,
2013-05-31 17:01:00,81.0,-99.9,-100.00,South,190,14.0,17.0,-999,-99.99,,,-99.99,,2013-05-31 21:01:00,
2013-05-31 17:12:00,81.0,-99.9,-100.00,South,189,15.0,17.0,-999,-99.99,,,-99.99,,2013-05-31 21:12:00,
2013-05-31 17:22:00,80.0,-99.9,-100.00,South,189,13.0,15.0,-999,-99.99,,,-99.99,,2013-05-31 21:22:00,
2013-05-31 17:33:00,79.0,-99.9,30.01,South,191,14.0,16.0,-999,-99.99,,,-99.99,,2013-05-31 21:33:00,
2013-05-31 17:43:00,78.0,-99.9,-100.00,South,191,14.0,18.0,-999,-99.99,,,-99.99,,2013-05-31 21:43:00,
2013-05-31 17:54:00,79.0,-99.9,-100.00,South,190,16.0,19.0,-999,-99.99,,,-99.99,,2013-05-31 21:54:00,
2013-05-31 18:03:00,81.0,-99.9,-100.00,South,187,13.0,16.0,-999,-99.99,,,-99.99,,2013-05-31 22:03:00,
2013-05-31 18:12:00,82.0,-99.9,-100.00,South,182,10.0,16.0,-999,-99.99,,,-99.99,,2013-05-31 22:12:00,
2013-05-31 18:23:00,82.0,-99.9,-100.00,South,184,13.0,17.0,-999,-99.99,,,-99.99,,2013-05-31 22:23:00,
2013-05-31 18:33:00,82.0,-99.9,29.98,South,185,13.0,17.0,-999,-99.99,,,-99.99,,2013-05-31 22:33:00,
2013-05-31 18:42:00,81.0,-99.9,-100.00,South,185,13.0,17.0,-999,-99.99,,,-99.99,,2013-05-31 22:42:00,
2013-05-31 18:53:00,80.0,-99.9,-100.00,South,180,10.0,14.0,-999,-99.99,,,-99.99,,2013-05-31 22:53:00,
2013-05-31 19:02:00,80.0,-99.9,29.98,South,180,10.0,14.0,-999,-99.99,,,-99.99,,2013-05-31 23:02:00,
2013-05-31 19:12:00,79.0,-99.9,-100.00,South,177,7.0,12.0,-999,-99.99,,,-99.99,,2013-05-31 23:12:00,
2013-05-31 19:22:00,79.0,-99.9,-100.00,South,183,8.0,11.0,-999,-99.99,,,-99.99,,2013-05-31 23:22:00,
2013-05-31 19:32:00,78.0,-99.9,29.98,South,181,9.0,12.0,-999,-99.99,,,-99.99,,2013-05-31 23:32:00,
2013-05-31 19:43:00,78.0,-99.9,-100.00,South,183,10.0,13.0,-999,-99.99,,,-99.99,,2013-05-31 23:43:00,
2013-05-31 19:52:00,78.0,-99.9,-100.00,South,182,10.0,15.0,-999,-99.99,,,-99.99,,2013-05-31 23:52:00,
2013-05-31 20:01:00,78.0,-99.9,29.97,South,184,11.0,13.0,-999,-99.99,,,-99.99,,2013-06-01 00:01:00,
2013-05-31 20:12:00,77.0,-99.9,-100.00,South,184,12.0,15.0,-999,-99.99,,,-99.99,,2013-06-01 00:12:00,
2013-05-31 20:22:00,77.0,-99.9,29.97,South,187,12.0,15.0,-999,-99.99,,,-99.99,,2013-06-01 00:22:00,
2013-05-31 20:32:00,77.0,-99.9,-100.00,South,183,10.0,13.0,-999,-99.99,,,-99.99,,2013-06-01 00:32:00,
2013-05-31 20:42:00,77.0,-99.9,-100.00,South,187,11.0,13.0,-999,-99.99,,,-99.99,,2013-06-01 00:42:00,
2013-05-31 20:52:00,76.0,-99.9,-100.00,South,187,10.0,13.0,-999,-99.99,,,-99.99,,2013-06-01 00:52:00,
2013-05-31 21:02:00,76.0,-99.9,29.97,South,184,9.0,14.0,-999,-99.99,,,-99.99,,2013-06-01 01:02:00,
2013-05-31 21:11:00,76.0,-99.9,-100.00,South,185,10.0,13.0,-999,-99.99,,,-99.99,,2013-06-01 01:11:00,
2013-05-31 21:22:00,76.0,-99.9,-100.00,South,188,11.0,14.0,-999,-99.99,,,-99.99,,2013-06-01 01:22:00,
2013-05-31 21:32:00,76.0,-99.9,29.98,South,185,10.0,13.0,-999,-99.99,,,-99.99,,2013-06-01 01:32:00,
2013-05-31 21:42:00,76.0,-99.9,-100.00,South,180,9.0,14.0,-999,-99.99,,,-99.99,,2013-06-01 01:42:00,
2013-05-31 21:52:00,76.0,-99.9,-100.00,South,180,8.0,11.0,-999,-99.99,,,-99.99,,2013-06-01 01:52:00,
2013-05-31 22:02:00,76.0,-99.9,29.99,South,181,8.0,11.0,-999,-99.99,,,-99.99,,2013-06-01 02:02:00,
2013-05-31 22:12:00,76.0,-99.9,-100.00,South,179,8.0,11.0,-999,-99.99,,,-99.99,,2013-06-01 02:12:00,
2013-05-31 22:22:00,75.0,-99.9,-100.00,South,184,10.0,13.0,-999,-99.99,,,-99.99,,2013-06-01 02:22:00,
2013-05-31 22:32:00,75.0,-99.9,-100.00,South,183,9.0,13.0,-999,-99.99,,,-99.99,,2013-06-01 02:32:00,
2013-05-31 22:42:00,75.0,-99.9,-100.00,South,185,9.0,13.0,-999,-99.99,,,-99.99,,2013-06-01 02:42:00,
2013-05-31 22:52:00,75.0,-99.9,-100.00,South,180,7.0,11.0,-999,-99.99,,,-99.99,,2013-06-01 02:52:00,
2013-05-31 23:02:00,75.0,-99.9,-100.00,South,177,8.0,11.0,-999,-99.99,,,-99.99,,2013-06-01 03:02:00,
2013-05-31 23:12:00,75.0,-99.9,-100.00,South,173,7.0,10.0,-999,-99.99,,,-99.99,,2013-06-01 03:12:00,
2013-05-31 23:22:00,75.0,-99.9,-100.00,South,178,8.0,11.0,-999,-99.99,,,-99.99,,2013-06-01 03:22:00,
2013-05-31 23:33:00,75.0,-99.9,30.00,South,183,8.0,10.0,-999,-99.99,,,-99.99,,2013-06-01 03:33:00,
2013-05-31 23:43:00,76.0,-99.9,-100.00,South,172,6.0,8.0,-999,-99.99,,,-99.99,,2013-06-01 03:43:00,
2013-05-31 23:53:00,76.0,-99.9,-100.00,South,171,6.0,7.0,-999,-99.99,,,-99.99,,2013-06-01 03:53:00,